Startpagina
METAR-TAF:

METAR-TAF

Vliegvelden :

London Heathrow Airport

Londen-Heathrow, Engeland

breedte: 51-29N, lengte: 000-27W, hoogte: 24 m

Actueel weer

Dit bericht is 26 minuten geleden gemaakt, om 08:20 UTC
Wind 5 kt uit het zuidwesten, variërend tussen het zuiden en het westen
Temperatuur 20°C
Vochtigheid 60%
Druk 1019 hPa
Zicht 10 km of meer
Weinig wolken op 3100 ft

METAR: EGLL 180820Z AUTO 23005KT 190V270 9999 FEW031 20/12 Q1019 NOSIG

Tijdstip: 09:46 (08:46 UTC)

Verwachting

Dit bericht is 3 uur en het 42 minuten geleden gemaakt, om 05:04 UTC
Verwachting geldig van 18 om 06 UTC tot 19 om 12 UTC
Wind 6 kt uit het westzuidwesten
Zicht 10 km of meer
Weinig wolken op 4500 ft
Kans 30%
van 19 om 04 UTC tot 19 om 07 UTC
Zicht: 8000 m

TAF: EGLL 180504Z 1806/1912 24006KT 9999 FEW045 PROB30 1904/1907 8000

Waarnemingen en weersverwachtingen van meer dan 4000 vliegvelden (METAR en TAF).

De beschikbare stations zijn de gele en rode punten op de kaart.

Ga met uw muis naar het station om de naam te zien.

Klik dan om waarnemingen en weersverwachtingen te zien.

kaart wijzigen: klik op de groene knoppen met een zwart kruis om in te zoomen, op de groene knop met een streepje om uit te zoomen of op de groene pijlen voor aangrenzende kaarten.


METAR-TAF: